Belize - Landivar, Belize

9:50 PM CST on February 10, 2016 (GMT -0600)
Philip S W Goldson International | | Change Station
CLOSE
Current Station
Airport
Location: Belize,
Elevation: 16 ft
Nearby Weather Stations

Elev 16 ft 17.54 °N, 88.31 °W | Updated 50 minutes ago

Scattered Clouds
Scattered Clouds
--
Feels Like --
N
8
Wind Variable Wind from NW

Today
High -- | Low -- °F
--% Chance of Precip.
Yesterday
High -- | Low -- °F
Precip. -- in
Pressure --
Visibility 6.2 miles
Clouds Scattered Clouds 4000 ft
Scattered Clouds 4000 ft
Dew Point Not available.
Humidity Not available.
Rainfall 0.00 in
Snow Depth Not available.
6:22 AM 5:52 PM
Waxing Crescent, 9% visible
METAR MZBZ 110300Z 1106/1206 32007KT 9999 FEW020 SCT040
Pressure --
Visibility 6.2 miles
Clouds Scattered Clouds 4000 ft
Scattered Clouds 4000 ft
Dew Point Not available.
Humidity Not available.
Rainfall 0.00 in
Snow Depth Not available.
6:22 AM 5:52 PM
Waxing Crescent, 9% visible
METAR MZBZ 110300Z 1106/1206 32007KT 9999 FEW020 SCT040

10-Day Weather Forecast

No radar image for this location.
×

Almanac

Astronomy

Feb. 10, 2016 Rise Set
Actual Time
Civil Twilight
Nautical Twilight
Astronomical Twilight
Moon
Length of Visible Light
Length of Day
Tomorrow will be .
, % of the Moon is Illuminated

Today's Extremes

Country Highs Country Lows

Community

WunderPhotos

Upload Photos

1,892,000 photos uploaded!

WunderBlog® & News

Nearby

Air Quality

  Air Quality AQ Index Pollutant
Not available.

Snow Depth

Station Depth Elevation

Earthquake Activity

City Distance Mag. Time & Date
Minimum magnitude displayed is 2.5.

Coastal Water Temperatures

Place Temperature

Stations

Nearby Weather Stations

Station Location Temp. Windchill Dew Point Humidity Wind Precip. Elev Updated Type